Flight Track Log - Related Links

Times and Time Zones

All times are in EDT time to prevent confusion due to time zone crossing. See the CTL16 flight status page for this flight to view local times or setup timezone preferences in your user account.

Time Position Orientation Groundspeed Altitude Reporting Facility
EDT Latitude Longitude Course Direction KTS MPH feet Rate Location/Type
Fri 08:24:55 PM 39.4000 -84.4667 54° Northeast 154 177 1,800  Level Cincinnati TRACON
Fri 08:25:42 PM 39.4206 -84.4297 54° Northeast 169 194 2,100 412 Climbing Indianapolis Center
Fri 08:26:37 PM 39.4556 -84.3858 44° Northeast 188 216 2,500 365 Climbing Indianapolis Center
Fri 08:27:37 PM 39.4928 -84.3394 44° Northeast 191 220 2,800 446 Climbing Indianapolis Center
Fri 08:28:38 PM 39.5325 -84.2878 45° Northeast 192 221 3,400 492 Climbing Indianapolis Center
Fri 08:29:39 PM 39.5678 -84.2383 47° Northeast 184 212 3,800 347 Climbing Indianapolis Center
Fri 08:30:39 PM 39.6053 -84.1892 45° Northeast 192 221 4,100 545 Climbing Indianapolis Center
Fri 08:31:40 PM 39.6403 -84.1450 44° Northeast 181 208 4,900 738 Climbing Indianapolis Center
Fri 08:32:41 PM 39.6750 -84.1008 44° Northeast 168 193 5,600 711 Climbing Indianapolis Center
Fri 08:32:56 PM 39.6836 -84.0908 42° Northeast 175 201 5,800 700 Climbing Indianapolis Center
Fri 08:33:41 PM 39.7100 -84.0564 45° Northeast 173 199 6,300 677 Climbing Indianapolis Center
Fri 08:33:58 PM 39.7186 -84.0461 43° Northeast 173 199 6,500 787 Climbing Indianapolis Center
Fri 08:34:42 PM 39.7447 -84.0122 45° Northeast 168 193 7,100 590 Climbing Indianapolis Center
Fri 08:34:59 PM 39.7519 -84.0025 46° Northeast 171 197 7,100 1,180 Level Indianapolis Center
Fri 08:35:43 PM 39.7731 -83.9722 48° Northeast 125 144 8,300 1,355 Climbing Indianapolis Center
Fri 08:36:01 PM 39.7806 -83.9642 40° Northeast 158 182 8,500 600 Climbing Indianapolis Center
Fri 08:36:43 PM 39.8031 -83.9356 44° Northeast 156 180 8,900 492 Climbing Indianapolis Center
Fri 08:37:02 PM 39.8106 -83.9275 40° Northeast 148 170 9,000 98 Climbing Indianapolis Center
Fri 08:37:44 PM 39.8400 -83.8914 43° Northeast 193 222 9,000  Level Indianapolis Center
Fri 08:38:04 PM 39.8481 -83.8797 48° Northeast 168 193 9,000  Level Indianapolis Center
Fri 08:38:45 PM 39.8794 -83.8419 43° Northeast 199 229 9,000  Level Indianapolis Center
Fri 08:39:06 PM 39.8897 -83.8278 47° Northeast 193 222 9,000  Level Indianapolis Center
Fri 08:39:45 PM 39.9211 -83.7875 45° Northeast 202 232 9,000 98 Level Indianapolis Center
Fri 08:40:07 PM 39.9306 -83.7767 41° Northeast 199 229 9,100  Climbing Indianapolis Center
Fri 08:40:46 PM 39.9606 -83.7353 47° Northeast 204 235 9,000 -97 Descending Indianapolis Center
Fri 08:41:09 PM 39.9711 -83.7225 43° Northeast 203 234 9,000 98 Level Indianapolis Center
Fri 08:41:47 PM 40.0019 -83.6861 42° Northeast 201 231 9,100  Climbing Indianapolis Center
Fri 08:42:10 PM 40.0125 -83.6719 46° Northeast 202 232 9,000 -98 Descending Indianapolis Center
Fri 08:42:48 PM 40.0414 -83.6339 45° Northeast 197 227 9,000  Level Indianapolis Center
Fri 08:43:12 PM 40.0519 -83.6208 43° Northeast 198 228 9,000  Level Indianapolis Center
Fri 08:43:48 PM 40.0808 -83.5842 44° Northeast 199 229 9,000  Level Indianapolis Center
Fri 08:44:13 PM 40.0919 -83.5694 45° Northeast 199 229 9,000 -98 Level Indianapolis Center
Fri 08:44:49 PM 40.1200 -83.5344 44° Northeast 195 224 8,900  Descending Indianapolis Center
Fri 08:45:15 PM 40.1378 -83.5103 46° Northeast 197 227 9,000  Climbing Indianapolis Center
Fri 08:45:50 PM 40.1594 -83.4819 45° Northeast 192 221 8,900  Descending Indianapolis Center
Fri 08:46:17 PM 40.1761 -83.4603 45° Northeast 193 222 9,000 98 Climbing Indianapolis Center
Fri 08:46:51 PM 40.1986 -83.4322 44° Northeast 192 221 9,000 -98 Level Indianapolis Center
Fri 08:47:18 PM 40.2156 -83.4108 44° Northeast 193 222 8,900 -100 Descending Indianapolis Center
Fri 08:47:51 PM 40.2375 -83.3850 42° Northeast 192 221 8,900 97 Level Indianapolis Center
Fri 08:48:20 PM 40.2542 -83.3625 46° Northeast 192 221 9,000 67 Climbing Indianapolis Center
Fri 08:49:21 PM 40.2931 -83.3142 43° Northeast 190 219 9,000  Level Indianapolis Center
Fri 08:50:23 PM 40.3317 -83.2653 44° Northeast 191 220 9,000 49 Level Indianapolis Center
Fri 08:51:24 PM 40.3692 -83.2164 45° Northeast 189 217 9,100 -47 Climbing Indianapolis Center
Fri 08:52:31 PM 40.4147 -83.1586 44° Northeast 193 222 8,900 -94 Descending Indianapolis Center
Fri 08:53:32 PM 40.4542 -83.1086 44° Northeast 195 224 8,900 49 Level Indianapolis Center
Fri 08:54:34 PM 40.4914 -83.0581 46° Northeast 192 221 9,000 49 Climbing Indianapolis Center
Fri 08:55:35 PM 40.5264 -83.0125 45° Northeast 194 223 9,000  Level Indianapolis Center
Fri 08:56:36 PM 40.5644 -82.9608 46° Northeast 194 223 9,000 -49 Level Indianapolis Center
Fri 08:57:38 PM 40.6100 -82.9017 45° Northeast 196 226 8,900  Descending Indianapolis Center
Fri 08:58:21 PM 40.6342 -82.8703 45° Northeast 190 219 9,000  Climbing Cleveland Center
Fri 08:59:21 PM 40.6725 -82.8197 45° Northeast 190 219 8,900  Descending Cleveland Center
Fri 09:00:21 PM 40.7114 -82.7636 48° Northeast 190 219 9,000  Climbing Cleveland Center
Fri 09:01:21 PM 40.7497 -82.7128 45° Northeast 185 213 8,900 -50 Descending Cleveland Center
Fri 09:02:21 PM 40.7881 -82.6644 44° Northeast 192 221 8,900  Level Cleveland Center
Fri 09:02:40 PM 40.7989 -82.6511 43° Northeast 195 224 8,900 100 Level Cleveland Center
Fri 09:03:21 PM 40.8267 -82.6108 48° Northeast 187 215 9,000  Climbing Cleveland Center
Fri 09:04:21 PM 40.8608 -82.5653 45° Northeast 187 215 8,900  Descending Cleveland Center
Fri 09:05:21 PM 40.8992 -82.5117 47° Northeast 187 215 9,000  Climbing Cleveland Center
Fri 09:06:21 PM 40.9378 -82.4606 45° Northeast 187 215 8,900 -50 Descending Cleveland Center
Fri 09:07:21 PM 40.9761 -82.4092 45° Northeast 187 215 8,900  Level Cleveland Center
Fri 09:08:21 PM 41.0144 -82.3581 45° Northeast 187 215 8,900  Level Cleveland Center
Fri 09:08:38 PM 41.0292 -82.3364 48° Northeast 200 230 8,900  Level Cleveland Center
Fri 09:09:21 PM 41.0528 -82.3042 46° Northeast 187 215 8,900  Level Cleveland Center
Fri 09:10:21 PM 41.0953 -82.2472 45° Northeast 195 224 8,900 50 Level Cleveland Center
Fri 09:11:21 PM 41.1336 -82.1958 45° Northeast 195 224 9,000  Climbing Cleveland Center
Fri 09:12:34 PM 41.1803 -82.1308 46° Northeast 198 228 8,900 -45 Descending Cleveland Center
Fri 09:13:35 PM 41.2206 -82.0794 44° Northeast 196 226 8,900 49 Level Cleveland Center
Fri 09:14:36 PM 41.2606 -82.0389 37° Northeast 186 214 9,000  Climbing Cleveland Center
Fri 09:15:36 PM 41.3069 -82.0011 31° Northeast 191 220 8,900 -50 Descending Cleveland Center
Fri 09:16:37 PM 41.3533 -81.9689 28° Northeast 192 221 8,900 -234 Level Cleveland Center
Fri 09:17:44 PM 41.4100 -81.9314 26° Northeast 204 235 8,400 -626 Descending Cleveland Center
Fri 09:18:32 PM 41.4539 -81.9131 17° North 205 236 7,700 -1,513 Descending Cleveland Center
Fri 09:19:39 PM 41.5147 -81.8808 22° Northeast 219 252 5,500 -1,843 Descending Cleveland Center
Fri 09:20:39 PM 41.5572 -81.8292 42° Northeast 242 278 3,800 -1,289 Descending Cleveland Center
Fri 09:21:40 PM 41.5767 -81.7433 73° East 220 253 2,900 -1,086 Descending Cleveland Center
Fri 09:22:35 PM 41.5711 -81.6794 97° East 196 226 1,700 -939 Descending Cleveland Center
Fri 09:23:35 PM 41.5381 -81.6539 150° Southeast 117 135 1,100 -600 Descending Cleveland Center
Fri 09:25:00 PM 41.5167 -81.6667 217° Southwest  Level FlightAware Approximate

Login

Don't have an account? Register now (free) for customized features, flight alerts, and more!